createdAt,value
2023-03-12T00:01:19.328Z,53.21
2023-03-12T00:04:20.282Z,53.04
2023-03-12T00:07:21.313Z,52.84
2023-03-12T00:10:22.216Z,52.71
2023-03-12T00:13:23.141Z,52.60
2023-03-12T00:16:24.394Z,52.52
2023-03-12T00:19:25.547Z,52.64
2023-03-12T00:22:27.467Z,52.74
2023-03-12T00:25:28.408Z,52.77
2023-03-12T00:28:30.316Z,52.93
2023-03-12T00:31:32.375Z,53.10
2023-03-12T00:34:33.260Z,53.31
2023-03-12T00:37:36.311Z,53.43
2023-03-12T00:40:38.685Z,53.59
2023-03-12T00:43:39.728Z,53.66
2023-03-12T00:46:40.725Z,53.72
2023-03-12T00:49:41.618Z,53.85
2023-03-12T00:52:42.791Z,53.92
2023-03-12T00:55:43.860Z,54.01
2023-03-12T00:58:45.664Z,54.15
2023-03-12T01:01:46.896Z,54.20
2023-03-12T01:04:47.843Z,54.33
2023-03-12T01:07:48.861Z,54.45
2023-03-12T01:10:49.976Z,54.49
2023-03-12T01:13:51.093Z,54.49
2023-03-12T01:16:52.652Z,54.53
2023-03-12T01:19:54.563Z,54.63
2023-03-12T01:22:55.435Z,54.64
2023-03-12T01:25:56.755Z,54.64
2023-03-12T01:28:57.749Z,54.68
2023-03-12T01:31:58.933Z,54.80
2023-03-12T01:35:00.198Z,54.69
2023-03-12T01:38:01.110Z,54.73
2023-03-12T01:41:02.065Z,54.79
2023-03-12T01:44:04.155Z,54.70
2023-03-12T01:47:06.271Z,54.65
2023-03-12T01:50:07.811Z,54.71
2023-03-12T01:53:08.855Z,54.71
2023-03-12T01:56:10.292Z,54.66
2023-03-12T01:59:27.930Z,54.67
2023-03-12T02:02:29.273Z,54.63
2023-03-12T02:05:37.505Z,54.67
2023-03-12T02:08:42.033Z,54.63
2023-03-12T02:11:42.972Z,54.62
2023-03-12T02:14:43.938Z,54.46
2023-03-12T02:17:45.540Z,54.47
2023-03-12T02:20:52.543Z,54.44
2023-03-12T02:24:35.591Z,54.26
2023-03-12T02:27:36.858Z,54.11
2023-03-12T02:30:42.037Z,54.06
2023-03-12T02:33:43.587Z,53.99
2023-03-12T02:36:44.625Z,53.83
2023-03-12T02:39:51.247Z,53.78
2023-03-12T02:42:53.718Z,53.70
2023-03-12T02:45:55.632Z,53.59
2023-03-12T02:48:57.401Z,53.50
2023-03-12T02:51:58.312Z,53.52
2023-03-12T02:54:59.556Z,53.50
2023-03-12T02:58:00.690Z,53.32
2023-03-12T03:01:03.904Z,53.37
2023-03-12T03:04:06.409Z,53.25
2023-03-12T03:07:07.364Z,53.28
2023-03-12T03:10:08.870Z,53.19
2023-03-12T03:13:10.056Z,53.13
2023-03-12T03:16:12.875Z,53.04
2023-03-12T03:19:13.922Z,52.94
2023-03-12T03:22:15.001Z,52.84
2023-03-12T03:25:16.984Z,52.83
2023-03-12T03:28:22.454Z,52.74
2023-03-12T03:31:23.455Z,52.72
2023-03-12T03:34:24.541Z,52.54
2023-03-12T03:37:25.642Z,52.53
2023-03-12T03:40:26.807Z,52.50
2023-03-12T03:43:28.209Z,52.43
2023-03-12T03:46:29.559Z,52.31
2023-03-12T03:49:38.884Z,52.34
2023-03-12T03:52:39.884Z,52.23
2023-03-12T03:55:41.362Z,52.12
2023-03-12T03:58:43.171Z,52.08
2023-03-12T04:01:44.448Z,52.12
2023-03-12T04:04:46.642Z,52.11
2023-03-12T04:07:47.881Z,51.96
2023-03-12T04:10:49.585Z,52.04
2023-03-12T04:13:50.703Z,52.05
2023-03-12T04:16:53.317Z,52.00
2023-03-12T04:19:54.830Z,51.91
2023-03-12T04:22:57.798Z,51.79
2023-03-12T04:25:59.125Z,51.84
2023-03-12T04:29:00.708Z,51.79
2023-03-12T04:32:01.920Z,51.74
2023-03-12T04:35:03.229Z,51.68
2023-03-12T04:38:04.878Z,51.68
2023-03-12T04:41:10.121Z,51.67
2023-03-12T04:44:13.640Z,51.56
2023-03-12T04:47:14.672Z,51.61
2023-03-12T04:50:15.998Z,51.50
2023-03-12T04:53:17.271Z,51.53
2023-03-12T04:56:18.379Z,51.50
2023-03-12T04:59:20.362Z,51.53
2023-03-12T05:02:21.433Z,51.50
2023-03-12T05:05:22.428Z,51.59
2023-03-12T05:08:23.371Z,51.42
2023-03-12T05:11:25.080Z,51.52
2023-03-12T05:14:26.071Z,51.45
2023-03-12T05:17:27.184Z,51.58
2023-03-12T05:20:28.249Z,51.64
2023-03-12T05:23:30.287Z,51.74
2023-03-12T05:26:32.509Z,51.77
2023-03-12T05:29:54.870Z,51.77
2023-03-12T05:32:56.172Z,51.81
2023-03-12T05:35:57.821Z,51.83
2023-03-12T05:38:59.322Z,51.76
2023-03-12T05:42:01.384Z,51.96
2023-03-12T05:45:04.053Z,51.88
2023-03-12T05:48:05.516Z,51.80
2023-03-12T05:51:07.098Z,51.85
2023-03-12T05:54:09.436Z,51.98
2023-03-12T05:57:10.619Z,51.91
2023-03-12T06:00:13.842Z,51.84
2023-03-12T06:03:17.715Z,51.93
2023-03-12T06:06:19.079Z,51.98
2023-03-12T06:09:19.931Z,51.97
2023-03-12T06:12:21.132Z,51.98
2023-03-12T06:15:22.229Z,52.01
2023-03-12T06:18:23.182Z,52.07
2023-03-12T06:21:27.201Z,52.09
2023-03-12T06:24:28.504Z,52.15
2023-03-12T06:27:35.174Z,52.25
2023-03-12T06:30:36.116Z,52.38
2023-03-12T06:33:37.053Z,52.41
2023-03-12T06:36:38.026Z,52.56
2023-03-12T06:39:39.182Z,52.60
2023-03-12T06:42:40.076Z,52.60
2023-03-12T06:45:41.038Z,52.72
2023-03-12T06:48:42.780Z,52.81
2023-03-12T06:51:43.665Z,52.77
2023-03-12T06:54:44.587Z,52.72
2023-03-12T06:57:45.551Z,52.78
2023-03-12T07:00:46.559Z,52.69
2023-03-12T07:03:47.523Z,52.78
2023-03-12T07:06:50.573Z,52.54
2023-03-12T07:09:51.637Z,52.63
2023-03-12T07:12:52.550Z,52.66
2023-03-12T07:15:53.472Z,52.70
2023-03-12T07:18:54.422Z,52.56
2023-03-12T07:21:56.139Z,52.59
2023-03-12T07:24:57.206Z,52.56
2023-03-12T07:27:58.168Z,52.62
2023-03-12T07:31:03.329Z,52.43
2023-03-12T07:34:05.906Z,52.30
2023-03-12T07:37:07.161Z,52.26
2023-03-12T07:40:09.962Z,52.23
2023-03-12T07:43:12.099Z,52.19
2023-03-12T07:46:14.977Z,52.15
2023-03-12T07:49:21.507Z,52.11
2023-03-12T07:52:22.972Z,52.04
2023-03-12T07:55:24.020Z,51.95
2023-03-12T07:58:25.051Z,51.73
2023-03-12T08:01:31.468Z,51.61
2023-03-12T08:04:32.670Z,51.47
2023-03-12T08:07:34.882Z,51.16
2023-03-12T08:10:36.459Z,51.13
2023-03-12T08:13:37.622Z,50.99
2023-03-12T08:16:38.504Z,50.94
2023-03-12T08:19:39.468Z,50.79
2023-03-12T08:22:40.437Z,50.63
2023-03-12T08:25:41.353Z,50.54
2023-03-12T08:28:42.406Z,50.39
2023-03-12T08:31:57.424Z,50.23
2023-03-12T08:35:04.590Z,50.01
2023-03-12T08:38:05.445Z,49.82
2023-03-12T08:41:06.329Z,49.69
2023-03-12T08:44:07.663Z,49.55
2023-03-12T08:47:08.569Z,49.40
2023-03-12T08:50:11.534Z,49.17
2023-03-12T08:53:12.430Z,49.05
2023-03-12T08:56:13.503Z,48.76
2023-03-12T08:59:14.359Z,48.48
2023-03-12T09:02:15.278Z,48.29
2023-03-12T09:05:16.150Z,48.10
2023-03-12T09:08:17.766Z,47.96
2023-03-12T09:11:18.761Z,47.92
2023-03-12T09:15:01.117Z,47.86
2023-03-12T09:17:40.841Z,47.73
2023-03-12T09:20:42.878Z,47.52
2023-03-12T09:23:43.906Z,47.32
2023-03-12T09:26:44.876Z,47.18
2023-03-12T09:29:59.385Z,46.88
2023-03-12T09:33:01.711Z,46.64
2023-03-12T09:36:02.889Z,46.54
2023-03-12T09:39:04.068Z,46.38
2023-03-12T09:42:06.320Z,46.23
2023-03-12T09:45:12.370Z,45.96
2023-03-12T09:48:19.884Z,45.82
2023-03-12T09:51:28.015Z,45.68
2023-03-12T09:54:37.627Z,45.44
2023-03-12T09:57:38.597Z,45.03
2023-03-12T10:00:39.530Z,44.68
2023-03-12T10:03:56.544Z,44.29
2023-03-12T10:07:34.459Z,44.07
2023-03-12T10:10:42.880Z,43.57
2023-03-12T10:13:58.608Z,42.97
2023-03-12T10:17:02.556Z,43.05
2023-03-12T10:20:18.812Z,42.64
2023-03-12T10:23:38.555Z,42.48
2023-03-12T10:26:45.192Z,42.47
2023-03-12T10:29:48.340Z,42.08
2023-03-12T10:32:59.186Z,42.00
2023-03-12T10:36:00.203Z,41.81
2023-03-12T10:39:01.618Z,41.75
2023-03-12T10:42:13.290Z,41.85
2023-03-12T10:45:39.653Z,41.57
2023-03-12T10:48:42.359Z,41.39
2023-03-12T10:51:53.166Z,41.04
2023-03-12T10:54:54.132Z,41.00
2023-03-12T10:57:55.890Z,41.05
2023-03-12T11:00:59.277Z,40.92
2023-03-12T11:04:23.690Z,40.94
2023-03-12T11:07:34.827Z,40.84
2023-03-12T11:10:42.894Z,40.76
2023-03-12T11:13:43.748Z,40.82
2023-03-12T11:16:45.083Z,40.73
2023-03-12T11:19:45.939Z,40.72
2023-03-12T11:22:47.105Z,40.70
2023-03-12T11:25:53.722Z,40.91
2023-03-12T11:29:00.573Z,40.56
2023-03-12T11:32:42.978Z,40.37
2023-03-12T11:35:51.898Z,40.32
2023-03-12T11:38:52.795Z,40.10
2023-03-12T11:41:58.504Z,40.06
2023-03-12T11:45:03.645Z,40.19
2023-03-12T11:48:23.652Z,40.09
2023-03-12T11:51:54.869Z,39.92
2023-03-12T11:55:07.580Z,40.05
2023-03-12T11:58:42.547Z,40.22
2023-03-12T12:02:13.014Z,39.96
2023-03-12T12:05:41.624Z,40.01
2023-03-12T12:09:01.068Z,39.65
2023-03-12T12:12:05.822Z,39.61
2023-03-12T12:15:16.032Z,39.38
2023-03-12T12:18:37.251Z,39.45
2023-03-12T12:21:59.223Z,39.41
2023-03-12T12:25:22.119Z,39.12
2023-03-12T12:28:46.420Z,39.23
2023-03-12T12:31:47.776Z,38.86
2023-03-12T12:35:07.362Z,38.74
2023-03-12T12:38:30.649Z,38.62
2023-03-12T12:41:35.748Z,38.81
2023-03-12T12:44:48.750Z,38.51
2023-03-12T12:47:54.346Z,38.64
2023-03-12T12:50:59.422Z,38.29
2023-03-12T12:54:13.279Z,38.40
2023-03-12T12:57:23.535Z,38.42
2023-03-12T13:00:36.452Z,38.53
2023-03-12T13:03:37.708Z,38.66
2023-03-12T13:07:25.228Z,38.73
2023-03-12T13:10:34.200Z,38.64
2023-03-12T13:13:35.243Z,38.52
2023-03-12T13:16:37.303Z,38.46
2023-03-12T13:19:55.620Z,38.13
2023-03-12T13:23:23.158Z,38.00
2023-03-12T13:26:31.063Z,37.66
2023-03-12T13:29:32.094Z,37.87
2023-03-12T13:32:35.806Z,37.59
2023-03-12T13:35:38.056Z,37.61
2023-03-12T13:39:17.567Z,37.41
2023-03-12T13:42:37.122Z,37.31
2023-03-12T13:45:54.895Z,37.18
2023-03-12T13:48:58.690Z,37.22
2023-03-12T13:52:31.285Z,37.21
2023-03-12T13:55:34.808Z,37.22
2023-03-12T13:58:41.784Z,37.15
2023-03-12T14:01:47.428Z,37.20
2023-03-12T14:04:48.445Z,37.12
2023-03-12T14:08:10.229Z,37.14
2023-03-12T14:11:33.058Z,36.92
2023-03-12T14:14:53.339Z,36.89
2023-03-12T14:18:18.478Z,36.59
2023-03-12T14:21:21.088Z,36.49
2023-03-12T14:24:26.805Z,36.45
2023-03-12T14:27:31.192Z,36.33
2023-03-12T14:30:58.088Z,36.25
2023-03-12T14:34:11.059Z,36.15
2023-03-12T14:37:19.498Z,35.99
2023-03-12T14:40:26.082Z,35.69
2023-03-12T14:43:34.304Z,35.90
2023-03-12T14:46:35.373Z,35.95
2023-03-12T14:49:42.014Z,35.80
2023-03-12T14:52:43.175Z,35.84
2023-03-12T14:55:46.877Z,35.73
2023-03-12T14:58:48.658Z,35.47
2023-03-12T15:01:49.907Z,35.27
2023-03-12T15:04:54.931Z,35.31
2023-03-12T15:08:01.849Z,35.45
2023-03-12T15:11:02.914Z,35.63
2023-03-12T15:14:13.989Z,35.46
2023-03-12T15:17:18.374Z,35.44
2023-03-12T15:20:20.743Z,35.26
2023-03-12T15:23:23.384Z,35.46
2023-03-12T15:26:24.193Z,35.44
2023-03-12T15:29:27.111Z,35.41
2023-03-12T15:32:29.956Z,35.46
2023-03-12T15:35:31.406Z,35.36
2023-03-12T15:38:34.122Z,35.08
2023-03-12T15:41:48.512Z,35.26
2023-03-12T15:44:51.449Z,35.31
2023-03-12T15:47:53.816Z,35.27
2023-03-12T15:50:54.730Z,35.16
2023-03-12T15:54:04.805Z,35.07
2023-03-12T15:57:29.877Z,35.24
2023-03-12T16:00:41.798Z,35.35
2023-03-12T16:03:44.890Z,35.45
2023-03-12T16:06:48.285Z,35.34
2023-03-12T16:09:49.116Z,35.45
2023-03-12T16:12:52.577Z,35.54
2023-03-12T16:15:53.732Z,35.60
2023-03-12T16:18:54.643Z,35.56
2023-03-12T16:21:55.508Z,35.59
2023-03-12T16:24:56.381Z,35.47
2023-03-12T16:28:00.486Z,35.68
2023-03-12T16:31:01.852Z,35.62
2023-03-12T16:34:02.793Z,35.63
2023-03-12T16:37:03.746Z,35.75
2023-03-12T16:40:06.784Z,35.95
2023-03-12T16:43:14.239Z,36.02
2023-03-12T16:46:20.109Z,36.01
2023-03-12T16:49:21.191Z,36.27
2023-03-12T16:52:25.914Z,36.28
2023-03-12T16:55:29.171Z,36.74
2023-03-12T16:58:30.481Z,36.82
2023-03-12T17:01:31.443Z,36.94
2023-03-12T17:04:32.599Z,37.00
2023-03-12T17:07:33.556Z,37.31
2023-03-12T17:10:34.528Z,37.61
2023-03-12T17:13:35.659Z,37.92
2023-03-12T17:16:36.597Z,38.02
2023-03-12T17:19:37.565Z,38.26
2023-03-12T17:22:38.935Z,38.49
2023-03-12T17:25:41.864Z,38.68
2023-03-12T17:28:42.866Z,38.99
2023-03-12T17:31:43.759Z,39.12
2023-03-12T17:34:44.744Z,39.31
2023-03-12T17:37:47.771Z,39.59
2023-03-12T17:40:48.711Z,39.89
2023-03-12T17:43:49.638Z,40.04
2023-03-12T17:46:59.302Z,40.26
2023-03-12T17:50:00.835Z,40.53
2023-03-12T17:53:01.752Z,40.79
2023-03-12T17:56:03.026Z,40.96
2023-03-12T17:59:03.895Z,41.11
2023-03-12T18:02:05.042Z,41.36
2023-03-12T18:05:07.110Z,41.51
2023-03-12T18:08:08.884Z,41.72
2023-03-12T18:11:09.787Z,41.94
2023-03-12T18:14:10.662Z,42.15
2023-03-12T18:17:11.598Z,42.31
2023-03-12T18:20:14.452Z,42.48
2023-03-12T18:23:15.688Z,42.62
2023-03-12T18:26:16.656Z,42.78
2023-03-12T18:29:17.622Z,42.93
2023-03-12T18:32:18.520Z,43.01
2023-03-12T18:35:19.459Z,43.07
2023-03-12T18:38:20.471Z,43.26
2023-03-12T18:41:21.935Z,43.34
2023-03-12T18:44:22.909Z,43.48
2023-03-12T18:47:23.830Z,43.54
2023-03-12T18:50:24.700Z,43.64
2023-03-12T18:53:25.690Z,43.73
2023-03-12T18:56:27.327Z,43.86
2023-03-12T18:59:30.732Z,43.99
2023-03-12T19:02:32.833Z,44.04
2023-03-12T19:05:34.416Z,44.16
2023-03-12T19:08:36.699Z,44.33
2023-03-12T19:11:37.775Z,44.32
2023-03-12T19:14:38.874Z,44.38
2023-03-12T19:17:39.857Z,44.49
2023-03-12T19:20:40.820Z,44.68
2023-03-12T19:23:41.864Z,44.80
2023-03-12T19:26:42.821Z,44.93
2023-03-12T19:29:43.688Z,45.06
2023-03-12T19:32:44.952Z,45.19
2023-03-12T19:35:46.003Z,45.34
2023-03-12T19:38:46.956Z,45.46
2023-03-12T19:41:48.869Z,45.57
2023-03-12T19:44:51.159Z,45.79
2023-03-12T19:47:52.090Z,45.91
2023-03-12T19:50:54.128Z,46.04
2023-03-12T19:53:55.033Z,46.23
2023-03-12T19:56:56.004Z,46.34
2023-03-12T19:59:56.899Z,46.64
2023-03-12T20:02:58.962Z,46.78
2023-03-12T20:06:00.204Z,47.03
2023-03-12T20:09:01.764Z,47.23
2023-03-12T20:12:02.940Z,47.45
2023-03-12T20:15:04.592Z,47.58
2023-03-12T20:18:05.508Z,47.82
2023-03-12T20:21:07.025Z,47.87
2023-03-12T20:24:08.248Z,48.14
2023-03-12T20:27:10.058Z,48.22
2023-03-12T20:30:11.693Z,48.41
2023-03-12T20:33:13.625Z,48.65
2023-03-12T20:36:14.759Z,48.81
2023-03-12T20:39:15.712Z,48.88
2023-03-12T20:42:16.674Z,49.18
2023-03-12T20:45:17.673Z,49.31
2023-03-12T20:48:18.801Z,49.40
2023-03-12T20:51:19.697Z,49.45
2023-03-12T20:54:21.928Z,49.72
2023-03-12T20:57:22.800Z,49.82
2023-03-12T21:00:23.715Z,49.98
2023-03-12T21:03:25.826Z,50.12
2023-03-12T21:06:27.819Z,50.30
2023-03-12T21:09:28.864Z,50.40
2023-03-12T21:12:29.804Z,50.50
2023-03-12T21:15:30.803Z,50.53
2023-03-12T21:18:32.041Z,50.75
2023-03-12T21:21:35.613Z,50.80
2023-03-12T21:24:36.686Z,50.83
2023-03-12T21:27:49.800Z,51.00
2023-03-12T21:30:51.869Z,51.01
2023-03-12T21:33:56.527Z,51.28
2023-03-12T21:36:57.691Z,51.56
2023-03-12T21:40:00.693Z,51.63
2023-03-12T21:43:02.232Z,51.92
2023-03-12T21:46:30.033Z,51.95
2023-03-12T21:49:34.561Z,52.16
2023-03-12T21:52:40.064Z,52.26
2023-03-12T21:55:42.657Z,52.26
2023-03-12T21:58:44.356Z,52.37
2023-03-12T22:01:45.224Z,52.56
2023-03-12T22:04:46.187Z,52.55
2023-03-12T22:07:47.260Z,52.75
2023-03-12T22:10:48.398Z,52.93
2023-03-12T22:13:49.463Z,53.17
2023-03-12T22:16:50.472Z,53.23
2023-03-12T22:19:51.491Z,53.35
2023-03-12T22:22:52.373Z,53.33
2023-03-12T22:25:53.566Z,53.46
2023-03-12T22:29:15.580Z,53.42
2023-03-12T22:32:16.481Z,53.51
2023-03-12T22:35:24.320Z,53.62
2023-03-12T22:38:25.370Z,53.73
2023-03-12T22:41:28.173Z,53.90
2023-03-12T22:44:29.072Z,54.05
2023-03-12T22:47:29.969Z,54.21
2023-03-12T22:50:31.284Z,54.23
2023-03-12T22:53:32.599Z,54.39
2023-03-12T22:56:33.641Z,54.47
2023-03-12T22:59:34.649Z,54.52
2023-03-12T23:02:36.627Z,54.51
2023-03-12T23:05:37.521Z,54.78
2023-03-12T23:08:38.452Z,54.88
2023-03-12T23:11:40.500Z,55.00
2023-03-12T23:14:41.366Z,55.18
2023-03-12T23:17:42.272Z,55.46
2023-03-12T23:20:43.744Z,55.49
2023-03-12T23:23:45.265Z,55.76
2023-03-12T23:26:46.173Z,55.85
2023-03-12T23:29:47.062Z,55.90
2023-03-12T23:32:48.053Z,55.96
2023-03-12T23:35:57.202Z,56.09
2023-03-12T23:38:58.176Z,56.16
2023-03-12T23:41:59.084Z,56.35
2023-03-12T23:44:59.909Z,56.42
2023-03-12T23:48:00.910Z,56.58
2023-03-12T23:51:10.600Z,56.76
2023-03-12T23:54:11.461Z,56.85
2023-03-12T23:57:12.401Z,57.03
